createdAt,value
2023-02-02T00:00:59.508Z,107.70
2023-02-02T00:03:28.730Z,116.77
2023-02-02T00:05:58.011Z,110.63
2023-02-02T00:08:27.207Z,115.00
2023-02-02T00:10:56.322Z,112.93
2023-02-02T00:13:25.449Z,115.33
2023-02-02T00:15:56.484Z,117.40
2023-02-02T00:18:35.145Z,118.33
2023-02-02T00:21:05.119Z,115.60
2023-02-02T00:23:34.210Z,111.80
2023-02-02T00:26:03.246Z,113.23
2023-02-02T00:28:32.399Z,106.10
2023-02-02T00:31:03.023Z,111.30
2023-02-02T00:33:34.379Z,109.57
2023-02-02T00:36:04.161Z,105.77
2023-02-02T00:38:37.680Z,105.37
2023-02-02T00:41:07.562Z,106.67
2023-02-02T00:43:36.820Z,106.53
2023-02-02T00:46:06.546Z,108.53
2023-02-02T00:48:36.322Z,104.87
2023-02-02T00:51:05.638Z,109.73
2023-02-02T00:53:34.262Z,102.00
2023-02-02T00:56:02.843Z,109.33
2023-02-02T00:58:31.453Z,103.17
2023-02-02T01:01:00.046Z,107.87
2023-02-02T01:03:30.045Z,106.27
2023-02-02T01:05:58.622Z,104.30
2023-02-02T01:08:27.324Z,106.10
2023-02-02T01:10:55.920Z,103.70
2023-02-02T01:13:24.512Z,101.90
2023-02-02T01:15:57.103Z,106.57
2023-02-02T01:18:25.981Z,109.67
2023-02-02T01:21:00.621Z,107.40
2023-02-02T01:23:29.507Z,108.50
2023-02-02T01:25:59.379Z,108.30
2023-02-02T01:28:29.162Z,100.17
2023-02-02T01:30:58.422Z,97.40
2023-02-02T01:33:27.317Z,97.77
2023-02-02T01:35:57.540Z,99.10
2023-02-02T01:38:27.742Z,94.57
2023-02-02T01:40:59.139Z,96.63
2023-02-02T01:43:30.798Z,106.20
2023-02-02T01:46:00.330Z,98.83
2023-02-02T01:48:33.654Z,104.53
2023-02-02T01:51:06.252Z,101.70
2023-02-02T01:53:37.941Z,108.70
2023-02-02T01:56:09.531Z,106.83
2023-02-02T01:58:41.513Z,111.33
2023-02-02T02:01:11.457Z,111.30
2023-02-02T02:03:41.010Z,110.70
2023-02-02T02:06:12.857Z,111.13
2023-02-02T02:08:48.372Z,112.50
2023-02-02T02:11:17.121Z,117.60
2023-02-02T02:14:03.132Z,115.47
2023-02-02T02:16:44.723Z,113.53
2023-02-02T02:19:36.540Z,117.27
2023-02-02T02:22:29.200Z,120.57
2023-02-02T02:25:55.582Z,110.63
2023-02-02T02:28:53.035Z,114.03
2023-02-02T02:31:57.260Z,113.73
2023-02-02T02:34:34.441Z,108.87
2023-02-02T02:37:11.799Z,111.17
2023-02-02T02:39:48.460Z,111.57
2023-02-02T02:42:21.900Z,106.33
2023-02-02T02:44:52.472Z,102.73
2023-02-02T02:47:24.169Z,99.23
2023-02-02T02:49:53.030Z,99.93
2023-02-02T02:52:21.621Z,107.57
2023-02-02T02:54:52.845Z,97.97
2023-02-02T02:57:41.364Z,100.40
2023-02-02T03:00:26.019Z,98.53
2023-02-02T03:03:05.638Z,99.00
2023-02-02T03:05:39.700Z,100.37
2023-02-02T03:08:13.758Z,100.10
2023-02-02T03:10:45.560Z,78.77
2023-02-02T03:13:15.583Z,94.73
2023-02-02T03:15:45.617Z,91.70
2023-02-02T03:18:18.746Z,90.43
2023-02-02T03:20:47.635Z,89.97
2023-02-02T03:23:16.702Z,85.27
2023-02-02T03:25:45.712Z,90.40
2023-02-02T03:28:14.609Z,88.27
2023-02-02T03:30:44.271Z,86.80
2023-02-02T03:33:14.301Z,92.60
2023-02-02T03:35:44.433Z,87.10
2023-02-02T03:38:13.811Z,92.97
2023-02-02T03:40:42.607Z,85.77
2023-02-02T03:43:12.412Z,94.27
2023-02-02T03:45:41.659Z,88.67
2023-02-02T03:48:10.270Z,91.60
2023-02-02T03:50:38.976Z,88.33
2023-02-02T03:53:09.034Z,88.90
2023-02-02T03:55:39.110Z,95.10
2023-02-02T03:58:10.282Z,102.73
2023-02-02T04:00:38.994Z,102.17
2023-02-02T04:03:07.635Z,98.87
2023-02-02T04:05:36.302Z,97.57
2023-02-02T04:08:05.011Z,94.23
2023-02-02T04:10:34.995Z,94.37
2023-02-02T04:13:04.063Z,95.80
2023-02-02T04:15:32.668Z,87.70
2023-02-02T04:18:01.240Z,88.60
2023-02-02T04:20:29.814Z,93.23
2023-02-02T04:22:58.521Z,87.97
2023-02-02T04:25:27.514Z,90.17
2023-02-02T04:27:57.560Z,92.30
2023-02-02T04:30:26.172Z,92.07
2023-02-02T04:32:55.931Z,89.77
2023-02-02T04:35:24.959Z,90.67
2023-02-02T04:37:53.711Z,90.57
2023-02-02T04:40:22.254Z,88.47
2023-02-02T04:42:50.773Z,89.70
2023-02-02T04:45:20.784Z,93.57
2023-02-02T04:47:49.374Z,96.13
2023-02-02T04:50:18.331Z,91.17
2023-02-02T04:52:47.281Z,95.37
2023-02-02T04:55:16.174Z,94.07
2023-02-02T04:57:44.949Z,88.77
2023-02-02T05:00:14.735Z,94.77
2023-02-02T05:02:44.992Z,90.87
2023-02-02T05:05:15.502Z,88.00
2023-02-02T05:07:44.120Z,89.60
2023-02-02T05:10:13.361Z,92.43
2023-02-02T05:12:42.015Z,89.73
2023-02-02T05:15:11.881Z,95.90
2023-02-02T05:17:40.433Z,90.47
2023-02-02T05:20:11.935Z,88.17
2023-02-02T05:22:40.472Z,90.30
2023-02-02T05:25:10.149Z,90.70
2023-02-02T05:27:39.251Z,82.83
2023-02-02T05:30:09.103Z,87.27
2023-02-02T05:32:37.719Z,83.03
2023-02-02T05:35:07.274Z,78.97
2023-02-02T05:37:37.221Z,88.67
2023-02-02T05:40:06.667Z,81.33
2023-02-02T05:42:35.216Z,79.43
2023-02-02T05:45:03.840Z,81.83
2023-02-02T05:47:32.367Z,77.53
2023-02-02T05:50:02.539Z,78.57
2023-02-02T05:52:36.698Z,75.53
2023-02-02T05:55:07.444Z,77.07
2023-02-02T05:57:36.027Z,85.07
2023-02-02T06:00:05.591Z,81.03
2023-02-02T06:02:40.712Z,86.20
2023-02-02T06:05:09.894Z,91.03
2023-02-02T06:07:38.544Z,93.37
2023-02-02T06:10:09.213Z,77.70
2023-02-02T06:12:37.787Z,84.50
2023-02-02T06:15:07.432Z,87.43
2023-02-02T06:17:36.010Z,92.80
2023-02-02T06:20:04.912Z,89.63
2023-02-02T06:22:33.990Z,91.37
2023-02-02T06:25:04.443Z,92.43
2023-02-02T06:27:34.535Z,94.37
2023-02-02T06:30:03.171Z,98.27
2023-02-02T06:32:31.816Z,99.43
2023-02-02T06:35:00.437Z,106.90
2023-02-02T06:37:30.689Z,116.33
2023-02-02T06:39:59.394Z,113.07
2023-02-02T06:42:28.103Z,111.30
2023-02-02T06:44:58.083Z,137.40
2023-02-02T06:47:27.025Z,148.27
2023-02-02T06:49:55.802Z,137.83
2023-02-02T06:52:24.516Z,141.67
2023-02-02T06:54:53.075Z,141.23
2023-02-02T06:57:21.710Z,137.40
2023-02-02T06:59:51.273Z,135.93
2023-02-02T07:02:23.428Z,140.27
2023-02-02T07:04:52.980Z,163.93
2023-02-02T07:07:21.568Z,155.13
2023-02-02T07:09:58.051Z,138.07
2023-02-02T07:12:28.054Z,157.63
2023-02-02T07:14:56.671Z,139.73
2023-02-02T07:17:26.787Z,145.17
2023-02-02T07:19:55.414Z,133.57
2023-02-02T07:22:23.993Z,138.37
2023-02-02T07:24:54.664Z,132.63
2023-02-02T07:27:23.232Z,141.67
2023-02-02T07:29:51.855Z,142.50
2023-02-02T07:32:20.431Z,142.13
2023-02-02T07:34:50.458Z,139.93
2023-02-02T07:37:19.452Z,135.43
2023-02-02T07:39:48.111Z,145.70
2023-02-02T07:42:16.622Z,149.03
2023-02-02T07:44:45.175Z,140.03
2023-02-02T07:47:13.827Z,161.10
2023-02-02T07:49:42.946Z,146.67
2023-02-02T07:52:12.945Z,157.97
2023-02-02T07:54:41.533Z,153.90
2023-02-02T07:57:10.133Z,151.73
2023-02-02T07:59:38.692Z,153.93
2023-02-02T08:02:07.307Z,154.77
2023-02-02T08:04:35.905Z,146.40
2023-02-02T08:07:04.682Z,143.33
2023-02-02T08:09:34.666Z,153.17
2023-02-02T08:12:03.294Z,142.03
2023-02-02T08:14:32.505Z,154.47
2023-02-02T08:17:01.073Z,149.80
2023-02-02T08:19:29.671Z,157.10
2023-02-02T08:21:58.203Z,154.67
2023-02-02T08:24:29.144Z,145.77
2023-02-02T08:26:59.169Z,139.10
2023-02-02T08:29:27.786Z,140.07
2023-02-02T08:31:56.385Z,146.93
2023-02-02T08:34:24.941Z,138.47
2023-02-02T08:36:53.582Z,148.23
2023-02-02T08:39:22.772Z,140.33
2023-02-02T08:41:51.281Z,132.30
2023-02-02T08:44:22.393Z,141.70
2023-02-02T08:46:53.617Z,142.13
2023-02-02T08:49:22.699Z,136.83
2023-02-02T08:51:51.171Z,129.43
2023-02-02T08:54:19.677Z,141.63
2023-02-02T08:56:48.393Z,135.07
2023-02-02T08:59:16.935Z,146.80
2023-02-02T09:01:46.894Z,141.27
2023-02-02T09:04:17.558Z,146.97
2023-02-02T09:06:46.304Z,146.63
2023-02-02T09:09:16.617Z,145.03
2023-02-02T09:11:45.836Z,135.80
2023-02-02T09:14:15.579Z,137.13
2023-02-02T09:16:44.465Z,137.03
2023-02-02T09:19:14.588Z,141.07
2023-02-02T09:21:43.134Z,145.87
2023-02-02T09:24:13.220Z,146.90
2023-02-02T09:26:41.912Z,149.33
2023-02-02T09:29:13.801Z,149.27
2023-02-02T09:31:42.705Z,135.63
2023-02-02T09:34:14.815Z,139.70
2023-02-02T09:36:44.595Z,137.60
2023-02-02T09:39:15.171Z,131.00
2023-02-02T09:42:03.844Z,137.03
2023-02-02T09:44:57.166Z,132.43
2023-02-02T09:47:32.906Z,136.40
2023-02-02T09:50:06.425Z,141.30
2023-02-02T09:52:42.810Z,137.73
2023-02-02T09:55:19.496Z,140.17
2023-02-02T09:57:53.191Z,135.50
2023-02-02T10:00:30.762Z,131.50
2023-02-02T10:03:04.031Z,138.30
2023-02-02T10:05:46.042Z,135.60
2023-02-02T10:08:33.638Z,133.97
2023-02-02T10:11:12.648Z,136.63
2023-02-02T10:13:43.837Z,135.67
2023-02-02T10:16:18.377Z,135.33
2023-02-02T10:18:53.060Z,134.03
2023-02-02T10:21:30.540Z,143.70
2023-02-02T10:24:01.965Z,129.03
2023-02-02T10:26:38.177Z,129.53
2023-02-02T10:29:19.784Z,132.70
2023-02-02T10:31:59.158Z,139.83
2023-02-02T10:34:38.361Z,127.53
2023-02-02T10:37:28.417Z,115.63
2023-02-02T10:40:12.814Z,120.83
2023-02-02T10:43:12.690Z,124.10
2023-02-02T10:45:45.012Z,123.43
2023-02-02T10:48:16.842Z,129.97
2023-02-02T10:50:49.530Z,124.70
2023-02-02T10:53:20.414Z,121.03
2023-02-02T10:55:55.046Z,109.90
2023-02-02T10:58:29.330Z,122.80
2023-02-02T11:01:02.272Z,121.33
2023-02-02T11:03:33.099Z,123.20
2023-02-02T11:06:21.823Z,114.20
2023-02-02T11:08:56.960Z,112.87
2023-02-02T11:11:27.641Z,121.33
2023-02-02T11:14:00.460Z,112.83
2023-02-02T11:16:42.133Z,117.97
2023-02-02T11:19:25.371Z,112.33
2023-02-02T11:21:57.079Z,113.50
2023-02-02T11:24:30.143Z,111.73
2023-02-02T11:27:02.088Z,116.27
2023-02-02T11:29:33.016Z,118.13
2023-02-02T11:32:20.171Z,118.23
2023-02-02T11:34:48.796Z,116.20
2023-02-02T11:37:22.831Z,119.03
2023-02-02T11:39:54.016Z,119.53
2023-02-02T11:42:25.260Z,121.33
2023-02-02T11:44:55.762Z,112.40
2023-02-02T11:47:28.721Z,116.57
2023-02-02T11:49:59.348Z,115.73
2023-02-02T11:52:32.710Z,112.17
2023-02-02T11:55:10.795Z,112.10
2023-02-02T11:57:39.491Z,108.33
2023-02-02T12:00:17.649Z,109.03
2023-02-02T12:02:48.649Z,110.13
2023-02-02T12:05:36.333Z,115.40
2023-02-02T12:08:05.179Z,107.03
2023-02-02T12:10:43.169Z,99.20
2023-02-02T12:13:20.968Z,110.03
2023-02-02T12:15:55.662Z,110.00
2023-02-02T12:18:39.442Z,101.87
2023-02-02T12:21:13.861Z,105.93
2023-02-02T12:23:56.451Z,100.13
2023-02-02T12:26:30.854Z,112.17
2023-02-02T12:29:23.611Z,105.37
2023-02-02T12:32:07.740Z,104.10
2023-02-02T12:34:49.812Z,107.43
2023-02-02T12:37:32.335Z,105.83
2023-02-02T12:40:19.836Z,115.97
2023-02-02T12:43:04.124Z,110.87
2023-02-02T12:45:53.435Z,108.27
2023-02-02T12:48:35.911Z,106.10
2023-02-02T12:51:20.893Z,102.43
2023-02-02T12:54:32.711Z,103.73
2023-02-02T12:57:12.212Z,105.13
2023-02-02T13:00:05.253Z,102.10
2023-02-02T13:02:40.334Z,96.47
2023-02-02T13:05:34.043Z,105.37
2023-02-02T13:08:06.782Z,105.73
2023-02-02T13:10:41.585Z,102.07
2023-02-02T13:13:15.277Z,101.20
2023-02-02T13:15:48.718Z,93.63
2023-02-02T13:18:22.305Z,102.30
2023-02-02T13:20:56.522Z,101.77
2023-02-02T13:23:28.763Z,100.93
2023-02-02T13:26:03.524Z,95.77
2023-02-02T13:28:41.593Z,96.37
2023-02-02T13:31:17.941Z,93.97
2023-02-02T13:33:50.590Z,96.50
2023-02-02T13:36:26.211Z,96.93
2023-02-02T13:38:58.935Z,99.63
2023-02-02T13:41:29.112Z,99.93
2023-02-02T13:44:02.903Z,100.20
2023-02-02T13:46:38.082Z,102.50
2023-02-02T13:49:13.872Z,99.77
2023-02-02T13:51:55.169Z,100.13
2023-02-02T13:54:54.032Z,103.07
2023-02-02T13:57:53.083Z,99.87
2023-02-02T14:00:24.453Z,95.60
2023-02-02T14:02:56.635Z,100.10
2023-02-02T14:05:29.111Z,103.37
2023-02-02T14:08:03.424Z,98.50
2023-02-02T14:10:36.118Z,98.50
2023-02-02T14:13:38.434Z,104.77
2023-02-02T14:16:09.233Z,107.40
2023-02-02T14:18:57.937Z,99.97
2023-02-02T14:22:04.846Z,103.90
2023-02-02T14:24:46.154Z,101.53
2023-02-02T14:27:54.499Z,105.93
2023-02-02T14:30:29.818Z,101.90
2023-02-02T14:33:40.831Z,107.87
2023-02-02T14:36:17.059Z,100.20
2023-02-02T14:39:12.694Z,106.70
2023-02-02T14:42:16.952Z,105.27
2023-02-02T14:45:15.856Z,99.37
2023-02-02T14:47:49.931Z,104.67
2023-02-02T14:50:23.192Z,104.23
2023-02-02T14:53:03.155Z,98.53
2023-02-02T14:55:32.665Z,103.40
2023-02-02T14:58:03.916Z,107.67
2023-02-02T15:00:34.707Z,102.73
2023-02-02T15:03:35.606Z,101.77
2023-02-02T15:06:08.786Z,105.37
2023-02-02T15:08:38.873Z,105.83
2023-02-02T15:11:26.890Z,101.70
2023-02-02T15:14:07.159Z,103.67
2023-02-02T15:16:38.842Z,100.57
2023-02-02T15:19:23.912Z,104.80
2023-02-02T15:21:56.049Z,100.63
2023-02-02T15:24:28.482Z,100.40
2023-02-02T15:27:00.162Z,97.20
2023-02-02T15:29:39.283Z,102.13
2023-02-02T15:32:08.552Z,101.37
2023-02-02T15:34:43.934Z,97.30
2023-02-02T15:37:17.149Z,108.73
2023-02-02T15:39:49.422Z,103.37
2023-02-02T15:42:38.577Z,110.87
2023-02-02T15:45:07.912Z,104.67
2023-02-02T15:47:42.514Z,110.27
2023-02-02T15:50:20.362Z,119.07
2023-02-02T15:52:50.511Z,105.30
2023-02-02T15:55:26.337Z,109.00
2023-02-02T15:57:55.573Z,108.50
2023-02-02T16:00:27.664Z,111.83
2023-02-02T16:03:01.785Z,117.43
2023-02-02T16:05:47.454Z,106.97
2023-02-02T16:08:19.716Z,110.47
2023-02-02T16:10:50.314Z,116.27
2023-02-02T16:13:28.042Z,127.97
2023-02-02T16:15:58.943Z,116.80
2023-02-02T16:18:28.237Z,132.90
2023-02-02T16:21:00.194Z,135.93
2023-02-02T16:23:34.213Z,117.73
2023-02-02T16:26:06.544Z,132.33
2023-02-02T16:28:36.413Z,125.83
2023-02-02T16:31:05.724Z,127.03
2023-02-02T16:33:39.588Z,130.73
2023-02-02T16:36:25.170Z,131.37
2023-02-02T16:38:56.156Z,131.20
2023-02-02T16:41:32.526Z,128.87
2023-02-02T16:44:32.743Z,130.67
2023-02-02T16:47:01.914Z,151.73
2023-02-02T16:49:32.144Z,139.43
2023-02-02T16:52:19.749Z,165.50
2023-02-02T16:54:53.490Z,155.60
2023-02-02T16:57:27.439Z,147.00
2023-02-02T16:59:58.663Z,147.53
2023-02-02T17:02:31.137Z,148.30
2023-02-02T17:05:04.565Z,149.00
2023-02-02T17:07:35.858Z,145.97
2023-02-02T17:10:22.690Z,148.70
2023-02-02T17:12:52.960Z,209.53
2023-02-02T17:15:34.515Z,184.73
2023-02-02T17:18:05.118Z,153.77
2023-02-02T17:20:34.915Z,162.53
2023-02-02T17:23:10.051Z,149.47
2023-02-02T17:25:42.606Z,168.87
2023-02-02T17:28:14.811Z,157.27
2023-02-02T17:30:44.498Z,146.50
2023-02-02T17:33:14.983Z,153.93
2023-02-02T17:35:54.434Z,149.63
2023-02-02T17:38:25.507Z,150.00
2023-02-02T17:40:55.100Z,154.73
2023-02-02T17:43:25.273Z,149.90
2023-02-02T17:45:54.036Z,148.57
2023-02-02T17:48:23.614Z,141.83
2023-02-02T17:50:52.491Z,146.93
2023-02-02T17:53:23.322Z,147.77
2023-02-02T17:55:53.460Z,148.10
2023-02-02T17:58:22.127Z,150.63
2023-02-02T18:00:55.175Z,144.53
2023-02-02T18:03:27.759Z,144.67
2023-02-02T18:05:57.795Z,146.77
2023-02-02T18:08:26.434Z,141.30
2023-02-02T18:10:55.144Z,148.87
2023-02-02T18:13:25.332Z,150.37
2023-02-02T18:15:56.291Z,149.77
2023-02-02T18:18:25.005Z,146.80
2023-02-02T18:20:53.596Z,150.10
2023-02-02T18:23:24.608Z,172.87
2023-02-02T18:25:53.872Z,174.37
2023-02-02T18:28:22.549Z,164.03
2023-02-02T18:30:51.242Z,168.23
2023-02-02T18:33:23.465Z,173.53
2023-02-02T18:35:52.307Z,166.77
2023-02-02T18:38:21.411Z,222.70
2023-02-02T18:40:57.283Z,173.57
2023-02-02T18:43:25.992Z,166.37
2023-02-02T18:46:00.259Z,161.10
2023-02-02T18:48:31.602Z,160.37
2023-02-02T18:51:00.714Z,153.53
2023-02-02T18:53:29.282Z,154.07
2023-02-02T18:55:58.254Z,147.20
2023-02-02T18:58:27.698Z,150.93
2023-02-02T19:00:56.353Z,142.77
2023-02-02T19:03:24.987Z,141.20
2023-02-02T19:06:15.246Z,148.17
2023-02-02T19:08:45.114Z,151.87
2023-02-02T19:11:17.524Z,147.27
2023-02-02T19:13:47.181Z,145.63
2023-02-02T19:16:21.467Z,144.53
2023-02-02T19:18:51.520Z,151.67
2023-02-02T19:21:21.616Z,155.03
2023-02-02T19:23:50.257Z,143.63
2023-02-02T19:26:24.899Z,145.33
2023-02-02T19:28:54.445Z,146.83
2023-02-02T19:31:31.026Z,164.00
2023-02-02T19:34:01.251Z,174.70
2023-02-02T19:36:34.376Z,168.90
2023-02-02T19:39:12.327Z,171.33
2023-02-02T19:41:43.264Z,165.20
2023-02-02T19:44:18.075Z,146.70
2023-02-02T19:46:49.061Z,157.20
2023-02-02T19:49:24.813Z,154.80
2023-02-02T19:51:56.033Z,145.83
2023-02-02T19:54:30.840Z,142.17
2023-02-02T19:57:01.024Z,144.20
2023-02-02T19:59:36.682Z,143.23
2023-02-02T20:02:43.449Z,144.03
2023-02-02T20:05:23.486Z,141.50
2023-02-02T20:07:59.341Z,151.10
2023-02-02T20:10:30.409Z,152.47
2023-02-02T20:12:59.013Z,154.23
2023-02-02T20:15:34.192Z,174.17
2023-02-02T20:18:06.079Z,161.43
2023-02-02T20:20:40.230Z,150.83
2023-02-02T20:23:23.945Z,153.90
2023-02-02T20:25:52.675Z,147.40
2023-02-02T20:28:34.049Z,158.93
2023-02-02T20:31:05.121Z,155.83
2023-02-02T20:33:34.090Z,149.10
2023-02-02T20:36:03.394Z,154.47
2023-02-02T20:38:39.902Z,160.47
2023-02-02T20:41:08.662Z,156.37
2023-02-02T20:43:37.345Z,159.47
2023-02-02T20:46:06.226Z,161.80
2023-02-02T20:48:35.263Z,173.20
2023-02-02T20:51:03.822Z,171.80
2023-02-02T20:53:32.581Z,195.20
2023-02-02T20:56:03.295Z,194.10
2023-02-02T20:58:32.211Z,179.37
2023-02-02T21:01:05.499Z,164.10
2023-02-02T21:03:34.822Z,176.53
2023-02-02T21:06:03.413Z,174.10
2023-02-02T21:08:32.191Z,181.07
2023-02-02T21:11:03.734Z,183.33
2023-02-02T21:13:32.382Z,170.93
2023-02-02T21:16:00.978Z,167.60
2023-02-02T21:18:29.582Z,160.30
2023-02-02T21:20:58.273Z,159.87
2023-02-02T21:23:27.278Z,160.00
2023-02-02T21:25:55.929Z,159.17
2023-02-02T21:28:26.051Z,159.73
2023-02-02T21:30:54.715Z,160.97
2023-02-02T21:33:23.413Z,169.67
2023-02-02T21:35:52.036Z,202.27
2023-02-02T21:38:20.603Z,184.63
2023-02-02T21:40:50.142Z,159.47
2023-02-02T21:43:20.151Z,187.87
2023-02-02T21:45:53.079Z,177.93
2023-02-02T21:48:34.323Z,175.50
2023-02-02T21:51:20.962Z,176.50
2023-02-02T21:53:49.631Z,166.83
2023-02-02T21:56:31.002Z,167.77
2023-02-02T21:59:00.587Z,171.17
2023-02-02T22:01:37.283Z,167.67
2023-02-02T22:04:13.433Z,168.03
2023-02-02T22:06:45.158Z,174.60
2023-02-02T22:09:19.971Z,190.63
2023-02-02T22:11:52.457Z,184.67
2023-02-02T22:14:28.285Z,172.93
2023-02-02T22:17:00.284Z,166.30
2023-02-02T22:19:34.551Z,177.57
2023-02-02T22:22:18.772Z,162.07
2023-02-02T22:24:59.736Z,158.77
2023-02-02T22:27:41.686Z,155.77
2023-02-02T22:30:21.055Z,159.63
2023-02-02T22:32:51.152Z,161.07
2023-02-02T22:35:19.882Z,164.60
2023-02-02T22:37:48.705Z,162.93
2023-02-02T22:40:17.535Z,155.77
2023-02-02T22:42:46.073Z,167.93
2023-02-02T22:45:14.793Z,169.67
2023-02-02T22:47:43.885Z,167.67
2023-02-02T22:50:14.143Z,170.57
2023-02-02T22:52:42.855Z,170.53
2023-02-02T22:55:12.412Z,175.43
2023-02-02T22:57:41.281Z,167.87
2023-02-02T23:00:12.881Z,190.97
2023-02-02T23:02:42.431Z,164.00
2023-02-02T23:05:14.577Z,170.60
2023-02-02T23:07:44.347Z,177.63
2023-02-02T23:10:15.645Z,171.87
2023-02-02T23:12:44.655Z,185.20
2023-02-02T23:15:14.991Z,178.43
2023-02-02T23:17:43.825Z,184.40
2023-02-02T23:20:15.937Z,183.10
2023-02-02T23:22:44.886Z,180.63
2023-02-02T23:25:14.376Z,171.03
2023-02-02T23:27:43.443Z,170.33
2023-02-02T23:30:14.107Z,177.37
2023-02-02T23:32:42.820Z,168.33
2023-02-02T23:35:11.473Z,177.47
2023-02-02T23:37:41.608Z,168.97
2023-02-02T23:40:11.894Z,168.13
2023-02-02T23:42:40.461Z,170.00
2023-02-02T23:45:09.881Z,168.43
2023-02-02T23:47:38.486Z,161.33
2023-02-02T23:50:10.202Z,166.23
2023-02-02T23:52:40.502Z,167.03
2023-02-02T23:55:10.715Z,176.93
2023-02-02T23:57:39.520Z,184.33
